sensor_id;sensor_type;location;lat;lon;timestamp;temperature;humidity
64634;DHT22;51043;52.406;9.690;2022-12-07T00:01:08;4.10;99.90
64634;DHT22;51043;52.406;9.690;2022-12-07T00:03:36;4.10;99.90
64634;DHT22;51043;52.406;9.690;2022-12-07T00:06:05;4.10;99.90
64634;DHT22;51043;52.406;9.690;2022-12-07T00:08:33;4.10;99.90
64634;DHT22;51043;52.406;9.690;2022-12-07T00:11:04;4.10;99.90
64634;DHT22;51043;52.406;9.690;2022-12-07T00:13:32;4.20;99.90
64634;DHT22;51043;52.406;9.690;2022-12-07T00:16:05;4.20;99.90
64634;DHT22;51043;52.406;9.690;2022-12-07T00:18:34;4.20;99.90
64634;DHT22;51043;52.406;9.690;2022-12-07T00:21:07;4.20;99.90
64634;DHT22;51043;52.406;9.690;2022-12-07T00:23:36;4.20;99.90
64634;DHT22;51043;52.406;9.690;2022-12-07T00:26:20;4.20;99.90
64634;DHT22;51043;52.406;9.690;2022-12-07T00:28:52;4.20;99.90
64634;DHT22;51043;52.406;9.690;2022-12-07T00:31:21;4.20;99.90
64634;DHT22;51043;52.406;9.690;2022-12-07T00:33:48;4.20;99.90
64634;DHT22;51043;52.406;9.690;2022-12-07T00:36:17;4.20;99.90
64634;DHT22;51043;52.406;9.690;2022-12-07T00:38:47;4.20;99.90
64634;DHT22;51043;52.406;9.690;2022-12-07T00:41:20;4.20;99.90
64634;DHT22;51043;52.406;9.690;2022-12-07T00:43:48;4.30;99.90
64634;DHT22;51043;52.406;9.690;2022-12-07T00:46:16;4.20;99.90
64634;DHT22;51043;52.406;9.690;2022-12-07T00:48:43;4.20;99.90
64634;DHT22;51043;52.406;9.690;2022-12-07T00:51:15;4.30;99.90
64634;DHT22;51043;52.406;9.690;2022-12-07T00:53:42;4.30;99.90
64634;DHT22;51043;52.406;9.690;2022-12-07T00:56:23;4.30;99.90
64634;DHT22;51043;52.406;9.690;2022-12-07T00:58:58;4.30;99.90
64634;DHT22;51043;52.406;9.690;2022-12-07T01:01:28;4.30;99.90
64634;DHT22;51043;52.406;9.690;2022-12-07T01:03:56;4.30;99.90
64634;DHT22;51043;52.406;9.690;2022-12-07T01:06:24;4.30;99.90
64634;DHT22;51043;52.406;9.690;2022-12-07T01:08:51;4.40;99.90
64634;DHT22;51043;52.406;9.690;2022-12-07T01:11:20;4.40;99.90
64634;DHT22;51043;52.406;9.690;2022-12-07T01:13:50;4.40;99.90
64634;DHT22;51043;52.406;9.690;2022-12-07T01:16:18;4.40;99.90
64634;DHT22;51043;52.406;9.690;2022-12-07T01:18:47;4.40;99.90
64634;DHT22;51043;52.406;9.690;2022-12-07T01:21:17;4.40;99.90
64634;DHT22;51043;52.406;9.690;2022-12-07T01:23:44;4.40;99.90
64634;DHT22;51043;52.406;9.690;2022-12-07T01:26:14;4.40;99.90
64634;DHT22;51043;52.406;9.690;2022-12-07T01:28:41;4.40;99.90
64634;DHT22;51043;52.406;9.690;2022-12-07T01:31:14;4.40;99.90
64634;DHT22;51043;52.406;9.690;2022-12-07T01:33:46;4.40;99.90
64634;DHT22;51043;52.406;9.690;2022-12-07T01:38:45;4.40;99.90
64634;DHT22;51043;52.406;9.690;2022-12-07T01:41:13;4.40;99.90
64634;DHT22;51043;52.406;9.690;2022-12-07T01:44:09;4.40;99.90
64634;DHT22;51043;52.406;9.690;2022-12-07T01:46:40;4.40;99.90
64634;DHT22;51043;52.406;9.690;2022-12-07T01:49:11;4.40;99.90
64634;DHT22;51043;52.406;9.690;2022-12-07T01:51:40;4.30;99.90
64634;DHT22;51043;52.406;9.690;2022-12-07T01:54:10;4.30;99.90
64634;DHT22;51043;52.406;9.690;2022-12-07T01:56:39;4.30;99.90
64634;DHT22;51043;52.406;9.690;2022-12-07T01:59:07;4.20;99.90
64634;DHT22;51043;52.406;9.690;2022-12-07T02:01:34;4.20;99.90
64634;DHT22;51043;52.406;9.690;2022-12-07T02:04:01;4.10;99.90
64634;DHT22;51043;52.406;9.690;2022-12-07T02:06:29;4.10;99.90
64634;DHT22;51043;52.406;9.690;2022-12-07T02:08:56;4.10;99.90
64634;DHT22;51043;52.406;9.690;2022-12-07T02:11:23;4.10;99.90
64634;DHT22;51043;52.406;9.690;2022-12-07T02:13:50;4.10;99.90
64634;DHT22;51043;52.406;9.690;2022-12-07T02:16:46;4.00;99.90
64634;DHT22;51043;52.406;9.690;2022-12-07T02:19:27;4.00;99.90
64634;DHT22;51043;52.406;9.690;2022-12-07T02:22:23;4.00;99.90
64634;DHT22;51043;52.406;9.690;2022-12-07T02:25:20;3.90;99.90
64634;DHT22;51043;52.406;9.690;2022-12-07T02:27:57;3.90;99.90
64634;DHT22;51043;52.406;9.690;2022-12-07T02:30:31;4.00;99.90
64634;DHT22;51043;52.406;9.690;2022-12-07T02:33:04;4.00;99.90
64634;DHT22;51043;52.406;9.690;2022-12-07T02:35:39;4.00;99.90
64634;DHT22;51043;52.406;9.690;2022-12-07T02:38:40;3.90;99.90
64634;DHT22;51043;52.406;9.690;2022-12-07T02:41:20;3.90;99.90
64634;DHT22;51043;52.406;9.690;2022-12-07T02:43:57;3.80;99.90
64634;DHT22;51043;52.406;9.690;2022-12-07T02:46:40;3.70;99.90
64634;DHT22;51043;52.406;9.690;2022-12-07T02:49:08;3.80;99.90
64634;DHT22;51043;52.406;9.690;2022-12-07T02:51:40;3.90;99.90
64634;DHT22;51043;52.406;9.690;2022-12-07T02:54:18;3.90;99.90
64634;DHT22;51043;52.406;9.690;2022-12-07T02:56:52;3.90;99.90
64634;DHT22;51043;52.406;9.690;2022-12-07T03:05:36;4.00;99.90
64634;DHT22;51043;52.406;9.690;2022-12-07T03:11:12;4.00;99.90
64634;DHT22;51043;52.406;9.690;2022-12-07T03:13:55;4.00;99.90
64634;DHT22;51043;52.406;9.690;2022-12-07T03:16:27;3.90;99.90
64634;DHT22;51043;52.406;9.690;2022-12-07T03:19:01;4.00;99.90
64634;DHT22;51043;52.406;9.690;2022-12-07T03:21:36;3.90;99.90
64634;DHT22;51043;52.406;9.690;2022-12-07T03:24:09;4.00;99.90
64634;DHT22;51043;52.406;9.690;2022-12-07T03:26:47;4.00;99.90
64634;DHT22;51043;52.406;9.690;2022-12-07T03:29:22;4.00;99.90
64634;DHT22;51043;52.406;9.690;2022-12-07T03:32:19;4.00;99.90
64634;DHT22;51043;52.406;9.690;2022-12-07T03:40:00;3.80;99.90
64634;DHT22;51043;52.406;9.690;2022-12-07T03:42:29;3.80;99.90
64634;DHT22;51043;52.406;9.690;2022-12-07T03:44:57;3.90;99.90
64634;DHT22;51043;52.406;9.690;2022-12-07T03:50:06;3.90;99.90
64634;DHT22;51043;52.406;9.690;2022-12-07T03:52:42;3.90;99.90
64634;DHT22;51043;52.406;9.690;2022-12-07T03:55:30;3.90;99.90
64634;DHT22;51043;52.406;9.690;2022-12-07T03:58:07;3.80;99.90
64634;DHT22;51043;52.406;9.690;2022-12-07T04:00:35;3.80;99.90
64634;DHT22;51043;52.406;9.690;2022-12-07T04:03:03;3.80;99.90
64634;DHT22;51043;52.406;9.690;2022-12-07T04:05:30;3.70;99.90
64634;DHT22;51043;52.406;9.690;2022-12-07T04:07:56;3.80;99.90
64634;DHT22;51043;52.406;9.690;2022-12-07T04:10:23;3.70;99.90
64634;DHT22;51043;52.406;9.690;2022-12-07T04:12:50;3.70;99.90
64634;DHT22;51043;52.406;9.690;2022-12-07T04:15:17;3.70;99.90
64634;DHT22;51043;52.406;9.690;2022-12-07T04:17:44;3.60;99.90
64634;DHT22;51043;52.406;9.690;2022-12-07T04:20:11;3.60;99.90
64634;DHT22;51043;52.406;9.690;2022-12-07T04:22:38;3.60;99.90
64634;DHT22;51043;52.406;9.690;2022-12-07T04:25:05;3.60;99.90
64634;DHT22;51043;52.406;9.690;2022-12-07T04:27:32;3.60;99.90
64634;DHT22;51043;52.406;9.690;2022-12-07T04:29:59;3.60;99.90
64634;DHT22;51043;52.406;9.690;2022-12-07T04:32:26;3.60;99.90
64634;DHT22;51043;52.406;9.690;2022-12-07T04:34:53;3.60;99.90
64634;DHT22;51043;52.406;9.690;2022-12-07T04:37:21;3.70;99.90
64634;DHT22;51043;52.406;9.690;2022-12-07T04:39:48;3.70;99.90
64634;DHT22;51043;52.406;9.690;2022-12-07T04:42:16;3.70;99.90
64634;DHT22;51043;52.406;9.690;2022-12-07T04:44:43;3.70;99.90
64634;DHT22;51043;52.406;9.690;2022-12-07T04:47:11;3.70;99.90
64634;DHT22;51043;52.406;9.690;2022-12-07T04:49:38;3.80;99.90
64634;DHT22;51043;52.406;9.690;2022-12-07T04:52:05;3.80;99.90
64634;DHT22;51043;52.406;9.690;2022-12-07T04:54:32;3.70;99.90
64634;DHT22;51043;52.406;9.690;2022-12-07T04:56:59;3.70;99.90
64634;DHT22;51043;52.406;9.690;2022-12-07T04:59:26;3.60;99.90
64634;DHT22;51043;52.406;9.690;2022-12-07T05:01:53;3.60;99.90
64634;DHT22;51043;52.406;9.690;2022-12-07T05:04:19;3.60;99.90
64634;DHT22;51043;52.406;9.690;2022-12-07T05:06:47;3.60;99.90
64634;DHT22;51043;52.406;9.690;2022-12-07T05:09:14;3.50;99.90
64634;DHT22;51043;52.406;9.690;2022-12-07T05:11:42;3.50;99.90
64634;DHT22;51043;52.406;9.690;2022-12-07T05:14:17;3.50;99.90
64634;DHT22;51043;52.406;9.690;2022-12-07T05:16:46;3.50;99.90
64634;DHT22;51043;52.406;9.690;2022-12-07T05:19:14;3.40;99.90
64634;DHT22;51043;52.406;9.690;2022-12-07T05:21:42;3.30;99.90
64634;DHT22;51043;52.406;9.690;2022-12-07T05:24:12;3.30;99.90
64634;DHT22;51043;52.406;9.690;2022-12-07T05:26:40;3.30;99.90
64634;DHT22;51043;52.406;9.690;2022-12-07T05:29:07;3.20;99.90
64634;DHT22;51043;52.406;9.690;2022-12-07T05:31:34;3.20;99.90
64634;DHT22;51043;52.406;9.690;2022-12-07T05:34:01;3.20;99.90
64634;DHT22;51043;52.406;9.690;2022-12-07T05:36:29;3.20;99.90
64634;DHT22;51043;52.406;9.690;2022-12-07T05:38:58;3.10;99.90
64634;DHT22;51043;52.406;9.690;2022-12-07T05:41:25;3.10;99.90
64634;DHT22;51043;52.406;9.690;2022-12-07T05:44:10;3.20;99.90
64634;DHT22;51043;52.406;9.690;2022-12-07T05:46:37;3.20;99.90
64634;DHT22;51043;52.406;9.690;2022-12-07T05:49:04;3.20;99.90
64634;DHT22;51043;52.406;9.690;2022-12-07T05:51:35;3.30;99.90
64634;DHT22;51043;52.406;9.690;2022-12-07T05:54:05;3.30;99.90
64634;DHT22;51043;52.406;9.690;2022-12-07T05:56:32;3.40;99.90
64634;DHT22;51043;52.406;9.690;2022-12-07T05:58:59;3.40;99.90
64634;DHT22;51043;52.406;9.690;2022-12-07T06:01:44;3.40;99.90
64634;DHT22;51043;52.406;9.690;2022-12-07T06:04:11;3.40;99.90
64634;DHT22;51043;52.406;9.690;2022-12-07T06:06:38;3.50;99.90
64634;DHT22;51043;52.406;9.690;2022-12-07T06:09:05;3.40;99.90
64634;DHT22;51043;52.406;9.690;2022-12-07T06:11:32;3.40;99.90
64634;DHT22;51043;52.406;9.690;2022-12-07T06:14:18;3.50;99.90
64634;DHT22;51043;52.406;9.690;2022-12-07T06:16:44;3.50;99.90
64634;DHT22;51043;52.406;9.690;2022-12-07T06:19:11;3.40;99.90
64634;DHT22;51043;52.406;9.690;2022-12-07T06:21:38;3.40;99.90
64634;DHT22;51043;52.406;9.690;2022-12-07T06:24:05;3.40;99.90
64634;DHT22;51043;52.406;9.690;2022-12-07T06:26:32;3.50;99.90
64634;DHT22;51043;52.406;9.690;2022-12-07T06:28:59;3.50;99.90
64634;DHT22;51043;52.406;9.690;2022-12-07T06:31:26;3.40;99.90
64634;DHT22;51043;52.406;9.690;2022-12-07T06:34:00;3.40;99.90
64634;DHT22;51043;52.406;9.690;2022-12-07T06:36:30;3.40;99.90
64634;DHT22;51043;52.406;9.690;2022-12-07T06:38:57;3.40;99.90
64634;DHT22;51043;52.406;9.690;2022-12-07T06:41:24;3.40;99.90
64634;DHT22;51043;52.406;9.690;2022-12-07T06:43:51;3.40;99.90
64634;DHT22;51043;52.406;9.690;2022-12-07T06:46:21;3.40;99.90
64634;DHT22;51043;52.406;9.690;2022-12-07T06:48:48;3.30;99.90
64634;DHT22;51043;52.406;9.690;2022-12-07T06:51:15;3.20;99.90
64634;DHT22;51043;52.406;9.690;2022-12-07T06:53:42;3.20;99.90
64634;DHT22;51043;52.406;9.690;2022-12-07T06:56:09;3.10;99.90
64634;DHT22;51043;52.406;9.690;2022-12-07T06:58:36;3.00;99.90
64634;DHT22;51043;52.406;9.690;2022-12-07T07:01:12;3.00;99.90
64634;DHT22;51043;52.406;9.690;2022-12-07T07:03:39;3.00;99.90
64634;DHT22;51043;52.406;9.690;2022-12-07T07:06:07;3.00;99.90
64634;DHT22;51043;52.406;9.690;2022-12-07T07:08:37;2.90;99.90
64634;DHT22;51043;52.406;9.690;2022-12-07T07:11:06;2.90;99.90
64634;DHT22;51043;52.406;9.690;2022-12-07T07:13:33;2.80;99.90
64634;DHT22;51043;52.406;9.690;2022-12-07T07:16:00;2.80;99.90
64634;DHT22;51043;52.406;9.690;2022-12-07T07:18:27;2.80;99.90
64634;DHT22;51043;52.406;9.690;2022-12-07T07:20:54;2.80;99.90
64634;DHT22;51043;52.406;9.690;2022-12-07T07:23:22;2.80;99.90
64634;DHT22;51043;52.406;9.690;2022-12-07T07:25:49;2.90;99.90
64634;DHT22;51043;52.406;9.690;2022-12-07T07:28:16;2.90;99.90
64634;DHT22;51043;52.406;9.690;2022-12-07T07:30:43;3.00;99.90
64634;DHT22;51043;52.406;9.690;2022-12-07T07:33:11;2.90;99.90
64634;DHT22;51043;52.406;9.690;2022-12-07T07:35:39;2.90;99.90
64634;DHT22;51043;52.406;9.690;2022-12-07T07:38:06;2.90;99.90
64634;DHT22;51043;52.406;9.690;2022-12-07T07:40:33;2.90;99.90
64634;DHT22;51043;52.406;9.690;2022-12-07T07:43:01;2.90;99.90
64634;DHT22;51043;52.406;9.690;2022-12-07T07:45:28;3.00;99.90
64634;DHT22;51043;52.406;9.690;2022-12-07T07:47:55;3.00;99.90
64634;DHT22;51043;52.406;9.690;2022-12-07T07:50:22;3.00;99.90
64634;DHT22;51043;52.406;9.690;2022-12-07T07:52:49;3.00;99.90
64634;DHT22;51043;52.406;9.690;2022-12-07T07:55:16;3.00;99.90
64634;DHT22;51043;52.406;9.690;2022-12-07T07:57:43;3.10;99.90
64634;DHT22;51043;52.406;9.690;2022-12-07T08:00:13;3.10;99.90
64634;DHT22;51043;52.406;9.690;2022-12-07T08:02:41;3.10;99.90
64634;DHT22;51043;52.406;9.690;2022-12-07T08:05:11;3.10;99.90
64634;DHT22;51043;52.406;9.690;2022-12-07T08:07:38;3.10;99.90
64634;DHT22;51043;52.406;9.690;2022-12-07T08:10:06;3.20;99.90
64634;DHT22;51043;52.406;9.690;2022-12-07T08:12:40;3.20;99.90
64634;DHT22;51043;52.406;9.690;2022-12-07T08:15:28;3.20;99.90
64634;DHT22;51043;52.406;9.690;2022-12-07T08:17:55;3.30;99.90
64634;DHT22;51043;52.406;9.690;2022-12-07T08:20:22;3.40;99.90
64634;DHT22;51043;52.406;9.690;2022-12-07T08:22:49;3.40;99.90
64634;DHT22;51043;52.406;9.690;2022-12-07T08:25:17;3.40;99.90
64634;DHT22;51043;52.406;9.690;2022-12-07T08:27:44;3.50;99.90
64634;DHT22;51043;52.406;9.690;2022-12-07T08:30:11;3.50;99.90
64634;DHT22;51043;52.406;9.690;2022-12-07T08:32:38;3.50;99.90
64634;DHT22;51043;52.406;9.690;2022-12-07T08:35:06;3.50;99.90
64634;DHT22;51043;52.406;9.690;2022-12-07T08:37:33;3.60;99.90
64634;DHT22;51043;52.406;9.690;2022-12-07T08:40:00;3.60;99.90
64634;DHT22;51043;52.406;9.690;2022-12-07T08:42:27;3.70;99.90
64634;DHT22;51043;52.406;9.690;2022-12-07T08:45:09;3.80;99.90
64634;DHT22;51043;52.406;9.690;2022-12-07T08:47:40;3.80;99.90
64634;DHT22;51043;52.406;9.690;2022-12-07T08:50:09;3.80;99.90
64634;DHT22;51043;52.406;9.690;2022-12-07T08:52:40;3.90;99.90
64634;DHT22;51043;52.406;9.690;2022-12-07T08:55:10;3.90;99.90
64634;DHT22;51043;52.406;9.690;2022-12-07T08:57:38;3.90;99.90
64634;DHT22;51043;52.406;9.690;2022-12-07T09:00:06;3.90;99.90
64634;DHT22;51043;52.406;9.690;2022-12-07T09:02:34;4.00;99.90
64634;DHT22;51043;52.406;9.690;2022-12-07T09:05:01;3.90;99.90
64634;DHT22;51043;52.406;9.690;2022-12-07T09:07:29;3.90;99.90
64634;DHT22;51043;52.406;9.690;2022-12-07T09:09:57;3.90;99.90
64634;DHT22;51043;52.406;9.690;2022-12-07T09:12:24;3.90;99.90
64634;DHT22;51043;52.406;9.690;2022-12-07T09:14:50;3.90;99.90
64634;DHT22;51043;52.406;9.690;2022-12-07T09:17:17;3.90;99.90
64634;DHT22;51043;52.406;9.690;2022-12-07T09:19:44;3.90;99.90
64634;DHT22;51043;52.406;9.690;2022-12-07T09:22:11;3.90;99.90
64634;DHT22;51043;52.406;9.690;2022-12-07T09:24:38;3.90;99.90
64634;DHT22;51043;52.406;9.690;2022-12-07T09:27:05;4.00;99.90
64634;DHT22;51043;52.406;9.690;2022-12-07T09:29:31;4.10;99.90
64634;DHT22;51043;52.406;9.690;2022-12-07T09:31:58;4.10;99.90
64634;DHT22;51043;52.406;9.690;2022-12-07T09:34:25;4.10;99.90
64634;DHT22;51043;52.406;9.690;2022-12-07T09:36:53;4.10;99.90
64634;DHT22;51043;52.406;9.690;2022-12-07T09:39:20;4.10;99.90
64634;DHT22;51043;52.406;9.690;2022-12-07T09:41:48;4.10;99.90
64634;DHT22;51043;52.406;9.690;2022-12-07T09:44:24;4.20;99.90
64634;DHT22;51043;52.406;9.690;2022-12-07T09:46:51;4.30;99.90
64634;DHT22;51043;52.406;9.690;2022-12-07T09:49:21;4.40;99.90
64634;DHT22;51043;52.406;9.690;2022-12-07T09:52:20;4.60;99.90
64634;DHT22;51043;52.406;9.690;2022-12-07T09:54:49;4.70;99.90
64634;DHT22;51043;52.406;9.690;2022-12-07T09:57:17;4.80;99.90
64634;DHT22;51043;52.406;9.690;2022-12-07T09:59:44;4.90;99.90
64634;DHT22;51043;52.406;9.690;2022-12-07T10:04:58;4.60;99.90
64634;DHT22;51043;52.406;9.690;2022-12-07T10:07:25;4.70;99.90
64634;DHT22;51043;52.406;9.690;2022-12-07T10:09:53;4.60;99.90
64634;DHT22;51043;52.406;9.690;2022-12-07T10:12:19;4.90;99.90
64634;DHT22;51043;52.406;9.690;2022-12-07T10:14:55;5.30;99.90
64634;DHT22;51043;52.406;9.690;2022-12-07T10:17:39;5.50;99.90
64634;DHT22;51043;52.406;9.690;2022-12-07T10:20:19;5.50;99.90
64634;DHT22;51043;52.406;9.690;2022-12-07T10:25:33;5.60;99.90
64634;DHT22;51043;52.406;9.690;2022-12-07T10:31:00;5.10;99.90
64634;DHT22;51043;52.406;9.690;2022-12-07T10:36:22;4.80;99.90
64634;DHT22;51043;52.406;9.690;2022-12-07T10:38:53;4.70;99.90
64634;DHT22;51043;52.406;9.690;2022-12-07T10:41:20;4.70;99.90
64634;DHT22;51043;52.406;9.690;2022-12-07T10:43:55;4.80;99.90
64634;DHT22;51043;52.406;9.690;2022-12-07T10:52:30;4.80;99.90
64634;DHT22;51043;52.406;9.690;2022-12-07T11:00:39;4.50;99.90
64634;DHT22;51043;52.406;9.690;2022-12-07T11:09:00;4.60;99.90
64634;DHT22;51043;52.406;9.690;2022-12-07T11:16:57;4.20;99.90
64634;DHT22;51043;52.406;9.690;2022-12-07T11:22:43;3.90;99.90
64634;DHT22;51043;52.406;9.690;2022-12-07T11:25:20;3.60;99.90
64634;DHT22;51043;52.406;9.690;2022-12-07T11:28:16;3.30;99.90
64634;DHT22;51043;52.406;9.690;2022-12-07T11:31:02;3.20;99.90
64634;DHT22;51043;52.406;9.690;2022-12-07T11:33:54;3.20;99.90
64634;DHT22;51043;52.406;9.690;2022-12-07T11:36:41;3.20;99.90
64634;DHT22;51043;52.406;9.690;2022-12-07T11:39:35;3.20;99.90
64634;DHT22;51043;52.406;9.690;2022-12-07T11:42:14;3.30;99.90
64634;DHT22;51043;52.406;9.690;2022-12-07T11:45:28;3.40;99.90
64634;DHT22;51043;52.406;9.690;2022-12-07T11:47:54;3.40;99.90
64634;DHT22;51043;52.406;9.690;2022-12-07T11:50:41;3.50;99.90
64634;DHT22;51043;52.406;9.690;2022-12-07T11:55:43;3.70;99.90
64634;DHT22;51043;52.406;9.690;2022-12-07T11:58:42;3.80;99.90
64634;DHT22;51043;52.406;9.690;2022-12-07T12:03:49;4.10;99.90
64634;DHT22;51043;52.406;9.690;2022-12-07T12:06:19;4.20;99.90
64634;DHT22;51043;52.406;9.690;2022-12-07T12:09:05;4.20;99.90
64634;DHT22;51043;52.406;9.690;2022-12-07T12:20:47;5.00;99.90
64634;DHT22;51043;52.406;9.690;2022-12-07T12:23:22;5.10;99.90
64634;DHT22;51043;52.406;9.690;2022-12-07T12:26:01;5.00;99.90
64634;DHT22;51043;52.406;9.690;2022-12-07T12:31:07;4.80;99.90
64634;DHT22;51043;52.406;9.690;2022-12-07T12:33:35;4.90;99.90
64634;DHT22;51043;52.406;9.690;2022-12-07T12:47:03;4.70;99.90
64634;DHT22;51043;52.406;9.690;2022-12-07T12:49:42;4.60;99.90
64634;DHT22;51043;52.406;9.690;2022-12-07T12:57:35;4.40;99.90
64634;DHT22;51043;52.406;9.690;2022-12-07T13:00:23;4.50;99.90
64634;DHT22;51043;52.406;9.690;2022-12-07T13:02:53;4.50;99.90
64634;DHT22;51043;52.406;9.690;2022-12-07T13:05:22;4.60;99.90
64634;DHT22;51043;52.406;9.690;2022-12-07T13:08:00;4.60;99.90
64634;DHT22;51043;52.406;9.690;2022-12-07T13:13:00;4.60;99.90
64634;DHT22;51043;52.406;9.690;2022-12-07T13:23:52;4.50;99.90
64634;DHT22;51043;52.406;9.690;2022-12-07T13:26:36;4.50;99.90
64634;DHT22;51043;52.406;9.690;2022-12-07T13:29:18;4.60;99.90
64634;DHT22;51043;52.406;9.690;2022-12-07T13:32:22;4.50;99.90
64634;DHT22;51043;52.406;9.690;2022-12-07T13:34:50;4.50;99.90
64634;DHT22;51043;52.406;9.690;2022-12-07T13:37:25;4.40;99.90
64634;DHT22;51043;52.406;9.690;2022-12-07T13:39:55;4.40;99.90
64634;DHT22;51043;52.406;9.690;2022-12-07T13:42:32;4.40;99.90
64634;DHT22;51043;52.406;9.690;2022-12-07T13:45:01;4.40;99.90
64634;DHT22;51043;52.406;9.690;2022-12-07T13:47:49;4.40;99.90
64634;DHT22;51043;52.406;9.690;2022-12-07T13:50:27;4.40;99.90
64634;DHT22;51043;52.406;9.690;2022-12-07T13:53:01;4.40;99.90
64634;DHT22;51043;52.406;9.690;2022-12-07T13:55:29;4.50;99.90
64634;DHT22;51043;52.406;9.690;2022-12-07T13:57:57;4.50;99.90
64634;DHT22;51043;52.406;9.690;2022-12-07T14:00:28;4.50;99.90
64634;DHT22;51043;52.406;9.690;2022-12-07T14:03:23;4.50;99.90
64634;DHT22;51043;52.406;9.690;2022-12-07T14:06:24;4.40;99.90
64634;DHT22;51043;52.406;9.690;2022-12-07T14:09:07;4.40;99.90
64634;DHT22;51043;52.406;9.690;2022-12-07T14:11:35;4.40;99.90
64634;DHT22;51043;52.406;9.690;2022-12-07T14:14:02;4.40;99.90
64634;DHT22;51043;52.406;9.690;2022-12-07T14:16:35;4.40;99.90
64634;DHT22;51043;52.406;9.690;2022-12-07T14:19:40;4.40;99.90
64634;DHT22;51043;52.406;9.690;2022-12-07T14:22:34;4.40;99.90
64634;DHT22;51043;52.406;9.690;2022-12-07T14:27:51;4.40;99.90
64634;DHT22;51043;52.406;9.690;2022-12-07T14:30:19;4.30;99.90
64634;DHT22;51043;52.406;9.690;2022-12-07T14:32:58;4.30;99.90
64634;DHT22;51043;52.406;9.690;2022-12-07T14:35:26;4.20;99.90
64634;DHT22;51043;52.406;9.690;2022-12-07T14:37:53;4.10;99.90
64634;DHT22;51043;52.406;9.690;2022-12-07T14:40:26;4.10;99.90
64634;DHT22;51043;52.406;9.690;2022-12-07T14:43:05;4.00;99.90
64634;DHT22;51043;52.406;9.690;2022-12-07T14:45:36;3.90;99.90
64634;DHT22;51043;52.406;9.690;2022-12-07T14:48:03;3.90;99.90
64634;DHT22;51043;52.406;9.690;2022-12-07T14:50:52;3.90;99.90
64634;DHT22;51043;52.406;9.690;2022-12-07T14:53:44;3.80;99.90
64634;DHT22;51043;52.406;9.690;2022-12-07T14:56:13;3.70;99.90
64634;DHT22;51043;52.406;9.690;2022-12-07T14:58:40;3.70;99.90
64634;DHT22;51043;52.406;9.690;2022-12-07T15:01:07;3.70;99.90
64634;DHT22;51043;52.406;9.690;2022-12-07T15:03:37;3.70;99.90
64634;DHT22;51043;52.406;9.690;2022-12-07T15:06:06;3.70;99.90
64634;DHT22;51043;52.406;9.690;2022-12-07T15:08:34;3.70;99.90
64634;DHT22;51043;52.406;9.690;2022-12-07T15:11:01;3.60;99.90
64634;DHT22;51043;52.406;9.690;2022-12-07T15:13:29;3.60;99.90
64634;DHT22;51043;52.406;9.690;2022-12-07T15:16:19;3.60;99.90
64634;DHT22;51043;52.406;9.690;2022-12-07T15:18:47;3.50;99.90
64634;DHT22;51043;52.406;9.690;2022-12-07T15:21:24;3.50;99.90
64634;DHT22;51043;52.406;9.690;2022-12-07T15:23:51;3.50;99.90
64634;DHT22;51043;52.406;9.690;2022-12-07T15:26:18;3.40;99.90
64634;DHT22;51043;52.406;9.690;2022-12-07T15:28:45;3.40;99.90
64634;DHT22;51043;52.406;9.690;2022-12-07T15:31:16;3.40;99.90
64634;DHT22;51043;52.406;9.690;2022-12-07T15:34:04;3.50;99.90
64634;DHT22;51043;52.406;9.690;2022-12-07T15:36:33;3.40;99.90
64634;DHT22;51043;52.406;9.690;2022-12-07T15:39:01;3.40;99.90
64634;DHT22;51043;52.406;9.690;2022-12-07T15:41:39;3.40;99.90
64634;DHT22;51043;52.406;9.690;2022-12-07T15:44:06;3.30;99.90
64634;DHT22;51043;52.406;9.690;2022-12-07T15:46:54;3.20;99.90
64634;DHT22;51043;52.406;9.690;2022-12-07T15:49:21;3.20;99.90
64634;DHT22;51043;52.406;9.690;2022-12-07T15:51:49;3.10;99.90
64634;DHT22;51043;52.406;9.690;2022-12-07T15:54:20;3.10;99.90
64634;DHT22;51043;52.406;9.690;2022-12-07T15:56:47;3.10;99.90
64634;DHT22;51043;52.406;9.690;2022-12-07T15:59:15;3.10;99.90
64634;DHT22;51043;52.406;9.690;2022-12-07T16:01:42;3.10;99.90
64634;DHT22;51043;52.406;9.690;2022-12-07T16:04:09;3.10;99.90
64634;DHT22;51043;52.406;9.690;2022-12-07T16:06:36;3.10;99.90
64634;DHT22;51043;52.406;9.690;2022-12-07T16:09:04;3.10;99.90
64634;DHT22;51043;52.406;9.690;2022-12-07T16:11:35;3.10;99.90
64634;DHT22;51043;52.406;9.690;2022-12-07T16:14:02;3.10;99.90
64634;DHT22;51043;52.406;9.690;2022-12-07T16:16:29;3.20;99.90
64634;DHT22;51043;52.406;9.690;2022-12-07T16:18:57;3.10;99.90
64634;DHT22;51043;52.406;9.690;2022-12-07T16:21:24;3.10;99.90
64634;DHT22;51043;52.406;9.690;2022-12-07T16:23:51;3.10;99.90
64634;DHT22;51043;52.406;9.690;2022-12-07T16:26:20;3.10;99.90
64634;DHT22;51043;52.406;9.690;2022-12-07T16:28:51;3.20;99.90
64634;DHT22;51043;52.406;9.690;2022-12-07T16:31:20;3.20;99.90
64634;DHT22;51043;52.406;9.690;2022-12-07T16:33:48;3.20;99.90
64634;DHT22;51043;52.406;9.690;2022-12-07T16:36:17;3.30;99.90
64634;DHT22;51043;52.406;9.690;2022-12-07T16:38:54;3.30;99.90
64634;DHT22;51043;52.406;9.690;2022-12-07T16:41:21;3.40;99.90
64634;DHT22;51043;52.406;9.690;2022-12-07T16:43:48;3.40;99.90
64634;DHT22;51043;52.406;9.690;2022-12-07T16:46:15;3.40;99.90
64634;DHT22;51043;52.406;9.690;2022-12-07T16:48:42;3.50;99.90
64634;DHT22;51043;52.406;9.690;2022-12-07T16:51:11;3.50;99.90
64634;DHT22;51043;52.406;9.690;2022-12-07T16:53:41;3.50;99.90
64634;DHT22;51043;52.406;9.690;2022-12-07T16:56:13;3.50;99.90
64634;DHT22;51043;52.406;9.690;2022-12-07T16:58:42;3.50;99.90
64634;DHT22;51043;52.406;9.690;2022-12-07T17:01:14;3.50;99.90
64634;DHT22;51043;52.406;9.690;2022-12-07T17:03:42;3.50;99.90
64634;DHT22;51043;52.406;9.690;2022-12-07T17:06:23;3.60;99.90
64634;DHT22;51043;52.406;9.690;2022-12-07T17:08:51;3.60;99.90
64634;DHT22;51043;52.406;9.690;2022-12-07T17:11:24;3.50;99.90
64634;DHT22;51043;52.406;9.690;2022-12-07T17:13:51;3.60;99.90
64634;DHT22;51043;52.406;9.690;2022-12-07T17:16:38;3.60;99.90
64634;DHT22;51043;52.406;9.690;2022-12-07T17:19:06;3.60;99.90
64634;DHT22;51043;52.406;9.690;2022-12-07T17:21:40;3.50;99.90
64634;DHT22;51043;52.406;9.690;2022-12-07T17:24:10;3.40;99.90
64634;DHT22;51043;52.406;9.690;2022-12-07T17:26:38;3.40;99.90
64634;DHT22;51043;52.406;9.690;2022-12-07T17:29:14;3.40;99.90
64634;DHT22;51043;52.406;9.690;2022-12-07T17:31:41;3.50;99.90
64634;DHT22;51043;52.406;9.690;2022-12-07T17:34:14;3.60;99.90
64634;DHT22;51043;52.406;9.690;2022-12-07T17:36:42;3.60;99.90
64634;DHT22;51043;52.406;9.690;2022-12-07T17:39:10;3.60;99.90
64634;DHT22;51043;52.406;9.690;2022-12-07T17:41:38;3.50;99.90
64634;DHT22;51043;52.406;9.690;2022-12-07T17:44:24;3.40;99.90
64634;DHT22;51043;52.406;9.690;2022-12-07T17:46:52;3.30;99.90
64634;DHT22;51043;52.406;9.690;2022-12-07T17:49:26;3.20;99.90
64634;DHT22;51043;52.406;9.690;2022-12-07T17:51:53;3.20;99.90
64634;DHT22;51043;52.406;9.690;2022-12-07T17:54:39;3.10;99.90
64634;DHT22;51043;52.406;9.690;2022-12-07T17:57:06;3.00;99.90